Time;durP1;ratioP1;P1;durP2;ratioP2;P2;SDS_P1;SDS_P2;PMS_P1;PMS_P2;Temp;Humidity;BMP_temperature;BMP_pressure;BME280_temperature;BME280_humidity;BME280_pressure;Samples;Min_cycle;Max_cycle;Signal;HPM_P1;HPM_P2
2024/02/15 00:00:10;;;;;;;13.02;8.30;;;;;;;7.31;67.35;99874.75;6169976;23;20003;-96
2024/02/15 00:02:36;;;;;;;11.18;6.63;;;;;;;7.45;66.84;99890.31;6169081;23;20445;-96
2024/02/15 00:05:01;;;;;;;7.45;5.55;;;;;;;7.38;67.46;99892.28;6168683;23;20000;-96
2024/02/15 00:07:27;;;;;;;13.60;7.60;;;;;;;7.26;67.14;99872.75;6169452;23;20072;-96
2024/02/15 00:09:53;;;;;;;10.02;6.68;;;;;;;7.25;67.86;99887.19;6169289;23;20471;-96
2024/02/15 00:12:33;;;;;;;7.90;5.32;;;;;;;7.37;67.90;99901.41;6169248;23;19996;-96
2024/02/15 00:15:59;;;;;;;6.45;4.40;;;;;;;7.03;69.00;99882.41;6229402;23;19996;-96
2024/02/15 00:18:43;;;;;;;6.63;4.95;;;;;;;7.26;68.65;99919.09;6144520;23;20080;-96
2024/02/15 00:21:14;;;;;;;8.38;5.50;;;;;;;7.20;69.29;99917.38;6166480;23;20016;-96
2024/02/15 00:23:59;;;;;;;8.57;6.65;;;;;;;7.13;68.95;99895.22;6104111;23;20070;-96
2024/02/15 00:26:35;;;;;;;10.35;6.50;;;;;;;7.27;68.76;99890.44;6104633;23;20006;-96
2024/02/15 00:29:06;;;;;;;9.30;5.50;;;;;;;7.22;68.53;99891.16;6079239;23;20108;-96
2024/02/15 00:31:38;;;;;;;7.97;4.80;;;;;;;7.21;69.22;99896.75;6078614;23;20077;-96
2024/02/15 00:39:55;;;;;;;8.18;5.63;;;;;;;7.09;69.37;99900.22;6223665;22;20025;-96
2024/02/15 00:42:21;;;;;;;7.47;5.22;;;;;;;7.00;69.62;99887.44;6173659;23;20035;-96
2024/02/15 00:44:52;;;;;;;11.00;5.60;;;;;;;6.91;70.13;99905.69;6173148;23;20005;-96
2024/02/15 00:47:21;;;;;;;8.38;5.80;;;;;;;6.79;70.55;99899.50;6173499;23;20428;-96
2024/02/15 00:49:50;;;;;;;9.95;5.40;;;;;;;6.71;71.11;99887.28;6171984;23;20013;-96
2024/02/15 00:52:17;;;;;;;11.43;5.50;;;;;;;6.79;71.83;99902.19;6174047;23;20001;-96
2024/02/15 00:54:43;;;;;;;7.82;5.43;;;;;;;6.81;70.88;99894.75;6174837;23;20015;-96
2024/02/15 00:57:09;;;;;;;6.88;5.63;;;;;;;6.77;71.37;99889.03;6172754;23;20432;-96
2024/02/15 00:59:36;;;;;;;11.75;6.05;;;;;;;6.79;71.03;99894.97;6174457;23;20088;-96
2024/02/15 01:02:02;;;;;;;8.05;5.40;;;;;;;6.81;70.60;99895.56;6197026;23;20013;-96
2024/02/15 01:04:28;;;;;;;6.80;4.78;;;;;;;6.81;70.49;99900.91;6172899;23;20026;-96
2024/02/15 01:06:55;;;;;;;6.63;5.28;;;;;;;6.73;68.83;99893.22;6171620;23;20004;-96
2024/02/15 01:09:25;;;;;;;8.50;5.15;;;;;;;6.79;68.50;99902.19;6171065;23;19996;-96
2024/02/15 01:11:50;;;;;;;10.27;5.20;;;;;;;6.62;68.99;99888.63;6172264;23;20023;-96
2024/02/15 01:14:19;;;;;;;7.57;5.00;;;;;;;6.66;68.81;99911.22;6171809;23;20079;-96
2024/02/15 01:16:46;;;;;;;6.85;4.50;;;;;;;6.51;68.53;99902.81;6169055;23;20001;-96
2024/02/15 01:19:11;;;;;;;7.35;4.80;;;;;;;6.43;68.64;99887.91;6168077;23;20007;-96
2024/02/15 01:21:37;;;;;;;8.32;4.65;;;;;;;6.62;68.65;99908.19;6168884;23;20005;-96
2024/02/15 01:24:03;;;;;;;7.05;4.88;;;;;;;6.45;69.20;99900.03;6168658;23;20001;-96
2024/02/15 01:26:29;;;;;;;10.95;5.28;;;;;;;6.71;69.06;99926.59;6169492;23;20001;-96
2024/02/15 01:28:58;;;;;;;7.95;5.05;;;;;;;6.54;68.90;99897.84;6171293;23;20005;-96
2024/02/15 01:31:23;;;;;;;6.85;4.45;;;;;;;6.63;68.77;99903.66;6168080;23;20514;-96
2024/02/15 01:33:49;;;;;;;6.47;4.78;;;;;;;6.53;67.93;99896.19;6168420;23;20000;-96
2024/02/15 01:36:18;;;;;;;7.63;4.88;;;;;;;6.43;69.57;99896.75;6167144;23;20458;-96
2024/02/15 01:38:44;;;;;;;6.60;4.85;;;;;;;6.43;69.31;99901.28;6167217;23;20028;-96
2024/02/15 01:41:09;;;;;;;7.68;5.38;;;;;;;6.33;69.50;99892.97;6167529;23;20008;-96
2024/02/15 01:43:35;;;;;;;8.07;4.30;;;;;;;6.44;69.12;99905.59;6167619;23;20027;-96
2024/02/15 01:46:03;;;;;;;6.75;4.93;;;;;;;6.32;69.51;99894.03;6168299;23;20074;-96
2024/02/15 01:48:32;;;;;;;8.55;4.97;;;;;;;6.49;69.21;99913.72;6165793;23;20000;-96
2024/02/15 01:50:58;;;;;;;7.68;5.47;;;;;;;6.33;69.32;99906.34;6165944;23;20000;-96
2024/02/15 01:53:24;;;;;;;7.40;5.30;;;;;;;6.51;68.82;99903.63;6166730;23;20031;-96
2024/02/15 01:55:49;;;;;;;8.27;5.55;;;;;;;6.54;69.28;99918.44;6166540;23;20012;-96
2024/02/15 01:58:15;;;;;;;8.65;5.43;;;;;;;6.42;69.40;99911.16;6166476;23;20077;-96
2024/02/15 02:00:41;;;;;;;6.40;4.85;;;;;;;6.37;69.09;99921.75;6166260;23;20104;-96
2024/02/15 02:03:07;;;;;;;9.25;5.20;;;;;;;6.33;69.53;99920.56;6166524;23;20001;-96
2024/02/15 02:05:33;;;;;;;9.93;5.22;;;;;;;6.23;69.65;99930.97;6166547;23;20000;-96
2024/02/15 02:08:01;;;;;;;8.35;5.32;;;;;;;6.36;69.27;99924.63;6166472;23;20420;-96
2024/02/15 02:10:27;;;;;;;8.85;5.53;;;;;;;6.28;70.05;99915.06;6166595;23;20008;-96
2024/02/15 02:12:53;;;;;;;6.80;4.72;;;;;;;6.30;70.59;99920.19;6166845;23;20007;-96
2024/02/15 02:15:19;;;;;;;7.88;5.03;;;;;;;6.42;69.82;99926.41;6169324;23;20363;-96
2024/02/15 02:17:50;;;;;;;7.68;5.65;;;;;;;6.50;69.30;99923.41;6170845;23;19992;-96
2024/02/15 02:20:16;;;;;;;9.32;6.13;;;;;;;6.43;70.93;99928.03;6171277;23;19997;-96
2024/02/15 02:22:45;;;;;;;9.57;5.20;;;;;;;6.49;71.31;99935.13;6170383;23;20498;-96
2024/02/15 02:25:11;;;;;;;8.52;5.53;;;;;;;6.41;71.71;99928.28;6170844;23;20024;-96
2024/02/15 02:27:36;;;;;;;6.80;4.82;;;;;;;6.41;71.17;99924.75;6169697;23;20348;-96
2024/02/15 02:30:17;;;;;;;7.15;5.13;;;;;;;6.59;71.97;99951.47;6170473;23;20035;-96
2024/02/15 02:32:42;;;;;;;6.97;5.00;;;;;;;6.54;71.18;99935.28;6171274;23;20027;-96
2024/02/15 02:35:11;;;;;;;7.45;5.13;;;;;;;6.46;71.70;99946.31;6171164;23;20005;-96
2024/02/15 02:37:37;;;;;;;9.02;5.55;;;;;;;6.35;71.34;99944.38;6171994;23;20000;-96
2024/02/15 02:40:12;;;;;;;7.80;5.30;;;;;;;6.39;70.17;99941.06;6195841;23;19977;-96
2024/02/15 02:42:51;;;;;;;7.90;5.68;;;;;;;6.36;70.27;99957.53;6171796;23;20007;-96
2024/02/15 02:45:19;;;;;;;7.05;5.13;;;;;;;6.37;70.25;99928.94;6170641;23;20001;-96
2024/02/15 02:47:51;;;;;;;7.82;4.93;;;;;;;6.48;70.79;99942.34;6170819;23;20007;-96
2024/02/15 02:50:17;;;;;;;9.48;5.13;;;;;;;6.28;70.39;99931.09;6170382;23;20000;-96
2024/02/15 02:52:44;;;;;;;6.60;5.05;;;;;;;6.26;71.48;99939.34;6169841;23;20087;-96
2024/02/15 02:55:09;;;;;;;9.63;5.32;;;;;;;6.41;71.39;99938.13;6170175;23;20035;-96
2024/02/15 02:57:38;;;;;;;8.07;5.60;;;;;;;6.56;71.61;99951.13;6170444;23;20004;-96
2024/02/15 03:00:08;;;;;;;7.63;5.45;;;;;;;6.43;71.14;99934.22;6170001;23;20012;-96
2024/02/15 03:02:46;;;;;;;8.40;5.93;;;;;;;6.32;71.68;99936.81;6170616;23;20003;-96
2024/02/15 03:05:12;;;;;;;25.00;20.85;;;;;;;6.26;72.49;99934.00;6170214;23;20004;-96
2024/02/15 03:07:39;;;;;;;9.02;6.50;;;;;;;6.20;73.75;99942.94;6170076;23;20003;-96
2024/02/15 03:10:08;;;;;;;7.55;5.40;;;;;;;6.09;73.72;99918.81;6169762;23;20004;-96
2024/02/15 03:12:36;;;;;;;8.70;5.43;;;;;;;6.12;75.07;99937.06;6170316;23;20004;-96
2024/02/15 03:15:10;;;;;;;9.75;5.90;;;;;;;5.99;75.74;99927.38;6170254;23;20023;-96
2024/02/15 03:17:39;;;;;;;6.95;5.10;;;;;;;6.05;75.77;99929.16;6170404;23;20001;-96
2024/02/15 03:20:11;;;;;;;10.43;5.60;;;;;;;6.00;75.89;99934.38;6169661;23;20423;-96
2024/02/15 03:22:38;;;;;;;7.97;5.85;;;;;;;6.02;75.50;99935.75;6172652;23;20079;-96
2024/02/15 03:25:07;;;;;;;7.32;5.63;;;;;;;5.98;76.04;99931.09;6171906;23;19996;-96
2024/02/15 03:27:35;;;;;;;6.95;5.43;;;;;;;6.09;75.36;99943.69;6169327;23;20074;-96
2024/02/15 03:30:01;;;;;;;9.57;5.78;;;;;;;5.94;76.43;99922.69;6168368;23;20428;-96
2024/02/15 03:32:27;;;;;;;8.90;5.75;;;;;;;6.05;75.89;99929.97;6168471;23;20000;-96
2024/02/15 03:34:54;;;;;;;9.38;6.10;;;;;;;6.00;75.47;99929.03;6196135;23;19996;-96
2024/02/15 03:37:20;;;;;;;7.82;5.80;;;;;;;6.05;75.16;99942.50;6170060;23;20005;-96
2024/02/15 03:39:46;;;;;;;8.57;5.85;;;;;;;6.09;75.69;99946.38;6170546;23;20371;-96
2024/02/15 03:42:12;;;;;;;9.52;5.72;;;;;;;5.90;75.83;99937.53;6169096;23;20008;-96
2024/02/15 03:44:38;;;;;;;8.27;5.90;;;;;;;5.83;76.72;99953.63;6170844;23;20070;-96
2024/02/15 03:47:05;;;;;;;8.15;5.88;;;;;;;5.94;77.43;99968.09;6170612;23;19996;-96
2024/02/15 03:49:31;;;;;;;8.55;6.20;;;;;;;5.91;77.04;99949.03;6169799;23;20355;-96
2024/02/15 03:51:59;;;;;;;10.18;6.10;;;;;;;6.04;77.05;99962.28;6194459;23;20423;-96
2024/02/15 03:54:25;;;;;;;11.02;7.32;;;;;;;6.01;76.91;99949.34;6169947;23;20001;-96
2024/02/15 03:56:54;;;;;;;9.68;6.35;;;;;;;6.03;76.98;99960.63;6193939;23;19996;-96
2024/02/15 03:59:29;;;;;;;9.30;6.13;;;;;;;5.87;76.26;99936.13;6195383;23;19993;-96
2024/02/15 04:01:55;;;;;;;10.13;6.45;;;;;;;5.85;76.54;99946.22;6172034;23;20066;-95
2024/02/15 04:04:21;;;;;;;9.48;6.03;;;;;;;6.01;75.64;99960.84;6169423;23;20077;-96
2024/02/15 04:06:51;;;;;;;8.00;5.85;;;;;;;5.94;75.40;99937.91;6168921;23;20011;-96
2024/02/15 04:09:20;;;;;;;9.85;6.30;;;;;;;5.84;75.75;99936.56;6168967;23;20071;-96
2024/02/15 04:11:52;;;;;;;10.35;6.20;;;;;;;5.91;76.59;99955.19;6170416;23;20003;-95
2024/02/15 04:14:19;;;;;;;8.48;6.90;;;;;;;5.89;76.37;99954.59;6170255;23;20001;-95
2024/02/15 04:16:47;;;;;;;9.52;6.43;;;;;;;6.05;74.32;99953.22;6168043;23;20009;-96
2024/02/15 04:19:13;;;;;;;10.10;6.45;;;;;;;6.17;74.50;99943.38;6168194;23;19997;-96
2024/02/15 04:21:39;;;;;;;8.07;5.75;;;;;;;6.14;74.30;99943.00;6167484;23;20067;-96
2024/02/15 04:24:06;;;;;;;10.20;6.20;;;;;;;6.15;74.95;99958.84;6167891;23;20100;-96
2024/02/15 04:26:33;;;;;;;9.07;5.93;;;;;;;6.15;74.28;99956.16;6166567;23;20008;-96
2024/02/15 04:29:09;;;;;;;8.75;5.80;;;;;;;6.26;74.21;99970.63;6169141;23;20072;-96
2024/02/15 04:31:39;;;;;;;8.68;6.20;;;;;;;6.11;73.67;99959.53;6171802;23;20005;-96
2024/02/15 04:34:04;;;;;;;11.32;6.65;;;;;;;5.99;74.76;99946.09;6192831;23;20008;-96
2024/02/15 04:36:33;;;;;;;10.20;6.78;;;;;;;5.96;74.69;99949.22;6166369;23;20000;-96
2024/02/15 04:38:59;;;;;;;10.18;6.38;;;;;;;6.05;74.23;99953.22;6167888;23;20024;-96
2024/02/15 04:41:25;;;;;;;8.77;6.10;;;;;;;6.09;74.13;99957.06;6167940;23;20004;-96
2024/02/15 04:43:56;;;;;;;8.25;6.13;;;;;;;6.14;74.36;99951.03;6175730;23;20008;-96
2024/02/15 04:46:30;;;;;;;9.75;6.60;;;;;;;6.30;74.25;99981.69;6200329;23;20427;-96
2024/02/15 04:49:10;;;;;;;9.50;6.38;;;;;;;6.03;74.62;99952.63;6098905;23;20001;-95
2024/02/15 04:51:36;;;;;;;12.88;7.40;;;;;;;6.15;75.20;99980.22;6163157;23;20001;-95
2024/02/15 04:54:02;;;;;;;14.60;7.57;;;;;;;6.22;75.36;99997.00;6138225;23;20024;-96
2024/02/15 04:56:37;;;;;;;12.45;7.53;;;;;;;6.08;75.59;99982.19;6179456;23;20001;-96
2024/02/15 04:59:26;;;;;;;16.80;9.07;;;;;;;5.97;75.88;99967.69;6186101;23;20005;-96
2024/02/15 05:02:14;;;;;;;13.30;8.25;;;;;;;6.00;75.53;99975.28;6160318;23;20012;-96
2024/02/15 05:04:43;;;;;;;14.77;8.50;;;;;;;5.96;76.77;99978.63;6130714;23;20000;-96
2024/02/15 05:07:16;;;;;;;11.13;7.70;;;;;;;5.84;77.14;99970.47;6155478;23;20012;-96
2024/02/15 05:09:52;;;;;;;17.50;8.75;;;;;;;5.83;76.92;99977.69;6153197;23;20029;-96
2024/02/15 05:12:34;;;;;;;14.93;8.43;;;;;;;6.00;77.75;100006.53;6178492;23;20031;-96
2024/02/15 05:15:09;;;;;;;;;;;;;;;6.09;77.11;100009.72;6179925;23;19985;-96
2024/02/15 05:17:44;;;;;;;10.05;7.22;;;;;;;5.90;77.15;99985.63;6148272;23;19908;-96
2024/02/15 05:20:20;;;;;;;12.05;7.25;;;;;;;6.02;76.67;99997.25;6155115;23;20016;-96
2024/02/15 05:22:50;;;;;;;11.32;7.30;;;;;;;5.98;77.40;99997.91;6101287;23;20009;-96
2024/02/15 05:28:53;;;;;;;12.93;8.40;;;;;;;5.72;78.17;100002.47;6138336;23;20028;-96
2024/02/15 05:31:23;;;;;;;10.32;7.53;;;;;;;5.77;78.95;100026.69;6090359;23;20009;-96
2024/02/15 05:40:02;;;;;;;19.92;12.02;;;;;;;5.80;78.59;100014.72;6163540;23;20013;-96
2024/02/15 05:43:46;;;;;;;15.77;10.80;;;;;;;5.84;77.84;100005.22;6201385;23;20008;-96
2024/02/15 05:46:12;;;;;;;16.60;9.70;;;;;;;5.93;77.80;100035.94;6169301;23;20028;-96
2024/02/15 05:48:44;;;;;;;15.65;10.30;;;;;;;6.01;77.46;100030.34;6144934;23;20005;-96
2024/02/15 05:51:12;;;;;;;15.52;9.57;;;;;;;6.03;77.12;100025.59;6172034;23;20005;-96
2024/02/15 05:54:03;;;;;;;12.15;9.07;;;;;;;6.16;76.59;100045.22;6143018;23;20005;-95
2024/02/15 05:57:06;;;;;;;25.27;14.68;;;;;;;6.17;76.94;100053.00;6177880;23;20060;-96
2024/02/15 06:05:10;;;;;;;;;;;;;;;;;;;;;
2024/02/15 06:07:36;;;;;;;21.80;9.82;;;;;;;6.01;78.00;100018.84;6201241;23;20040;-96
2024/02/15 06:10:07;;;;;;;18.65;9.80;;;;;;;6.12;77.41;100033.31;6168036;23;20387;-96
2024/02/15 06:12:34;;;;;;;13.97;9.30;;;;;;;6.35;77.36;100051.38;6173061;23;20008;-96
2024/02/15 06:15:12;;;;;;;15.10;9.25;;;;;;;6.46;75.90;100061.34;6170386;23;20023;-96
2024/02/15 06:17:41;;;;;;;13.27;7.70;;;;;;;6.33;76.25;100040.91;6197415;23;20031;-96
2024/02/15 06:20:13;;;;;;;12.35;8.45;;;;;;;6.60;75.31;100056.63;6166548;23;20059;-96
2024/02/15 06:23:10;;;;;;;15.30;8.43;;;;;;;6.47;74.66;100047.75;6200262;23;20001;-96
2024/02/15 06:25:37;;;;;;;12.65;8.68;;;;;;;6.32;75.65;100049.16;6140220;23;20002;-96
2024/02/15 06:42:19;;;;;;;;;;;;;;;;;;;;;
2024/02/15 06:45:13;;;;;;;20.17;11.07;;;;;;;7.18;73.31;100096.22;6178274;23;20055;-96
2024/02/15 06:47:53;;;;;;;15.43;11.00;;;;;;;7.02;73.60;100056.69;6233730;23;20061;-96
2024/02/15 06:50:18;;;;;;;25.63;10.70;;;;;;;7.17;73.70;100067.78;6169024;23;20012;-91
2024/02/15 06:52:49;;;;;;;15.88;10.43;;;;;;;7.25;73.45;100077.38;6175942;23;20431;-96
2024/02/15 06:55:22;;;;;;;17.95;10.25;;;;;;;7.23;72.89;100066.06;6176445;23;20008;-96
2024/02/15 06:57:48;;;;;;;14.05;10.25;;;;;;;7.38;72.34;100070.97;6220587;23;20246;-95
2024/02/15 07:00:21;;;;;;;15.57;8.57;;;;;;;7.25;65.59;100066.66;6178229;23;20438;-96
2024/02/15 07:02:50;;;;;;;13.80;7.80;;;;;;;7.44;64.63;100078.91;6179182;23;20068;-96
2024/02/15 07:05:18;;;;;;;11.35;6.75;;;;;;;7.56;62.48;100075.44;6169943;23;20016;-93
2024/02/15 07:07:49;;;;;;;10.13;6.85;;;;;;;7.80;62.60;100103.06;6194323;23;19996;-96
2024/02/15 07:15:41;;;;;;;9.27;6.70;;;;;;;7.57;61.77;100088.59;6206396;22;19900;-96
2024/02/15 07:18:07;;;;;;;58.15;35.03;;;;;;;7.73;61.84;100083.63;6224602;23;20017;-93
2024/02/15 07:20:36;;;;;;;13.52;7.38;;;;;;;7.75;59.79;100081.53;6167210;23;20015;-95
2024/02/15 07:23:05;;;;;;;10.23;6.30;;;;;;;7.82;58.86;100098.28;6166635;23;20012;-96
2024/02/15 07:25:31;;;;;;;9.45;6.35;;;;;;;7.48;59.74;100068.56;6165482;23;20024;-94
2024/02/15 07:27:56;;;;;;;10.25;5.88;;;;;;;7.58;58.67;100084.06;6166138;23;20498;-94
2024/02/15 07:30:27;;;;;;;12.63;7.32;;;;;;;7.83;58.18;100079.31;6164970;23;20008;-95
2024/02/15 07:32:52;;;;;;;14.68;7.15;;;;;;;7.92;59.12;100089.69;6169594;23;20143;-94
2024/02/15 07:35:18;;;;;;;12.40;7.05;;;;;;;7.94;56.58;100083.03;6169728;23;19996;-93
2024/02/15 07:38:05;;;;;;;10.00;6.18;;;;;;;7.76;55.92;100070.56;6168103;23;20463;-93
2024/02/15 07:40:33;;;;;;;9.07;5.50;;;;;;;7.54;56.18;100070.31;6168849;23;19996;-92
2024/02/15 07:43:03;;;;;;;10.77;6.05;;;;;;;7.65;55.92;100082.91;6169129;23;20058;-93
2024/02/15 07:45:49;;;;;;;10.05;5.80;;;;;;;7.66;56.29;100079.19;6176736;23;20068;-96
2024/02/15 07:48:19;;;;;;;8.40;5.50;;;;;;;7.52;55.40;100058.19;6185013;23;20004;-96
2024/02/15 07:57:03;;;;;;;7.72;5.53;;;;;;;7.67;56.05;100085.34;6221569;22;20032;-96
2024/02/15 07:59:47;;;;;;;7.43;4.68;;;;;;;7.58;54.85;100084.06;6198059;23;20008;-96
2024/02/15 08:02:22;;;;;;;8.55;4.80;;;;;;;7.52;54.44;100066.25;6170038;23;20024;-95
2024/02/15 08:04:53;;;;;;;12.50;6.95;;;;;;;7.48;54.43;100052.47;6169549;23;20332;-96
2024/02/15 08:07:31;;;;;;;7.25;4.78;;;;;;;7.59;54.90;100059.69;6185424;23;19989;-96
2024/02/15 08:13:29;;;;;;;10.10;6.13;;;;;;;7.61;53.33;100052.25;6233748;23;20447;-96
2024/02/15 08:15:55;;;;;;;9.88;5.40;;;;;;;7.81;53.42;100072.56;6167752;23;20025;-95
2024/02/15 08:18:28;;;;;;;7.32;5.13;;;;;;;7.67;53.03;100034.44;6143685;23;19993;-95
2024/02/15 08:20:58;;;;;;;8.93;5.07;;;;;;;7.54;54.25;100043.50;6142658;23;20020;-96
2024/02/15 08:23:24;;;;;;;15.18;9.40;;;;;;;7.63;55.51;100041.31;6196488;23;20004;-96
2024/02/15 08:25:56;;;;;;;9.73;5.47;;;;;;;7.72;54.61;100034.56;6143508;23;20056;-94
2024/02/15 08:28:34;;;;;;;;;;;;;;;8.08;52.89;100073.69;6175742;23;20013;-96
2024/02/15 08:31:01;;;;;;;7.68;4.80;;;;;;;8.04;53.52;100066.38;6160023;23;19909;-92
2024/02/15 08:33:28;;;;;;;7.63;5.18;;;;;;;8.05;52.48;100073.34;6133901;23;20010;-96
2024/02/15 08:48:16;;;;;;;14.60;5.40;;;;;;;7.79;55.24;100042.47;6207153;22;20027;-96
2024/02/15 08:50:45;;;;;;;6.95;4.63;;;;;;;7.98;52.59;100056.56;6145230;23;20013;-96
2024/02/15 08:56:10;;;;;;;7.60;4.70;;;;;;;8.05;52.02;100051.88;6231269;22;20021;-96
2024/02/15 08:58:54;;;;;;;8.27;4.70;;;;;;;7.94;52.31;100044.69;6147159;23;20031;-93
2024/02/15 09:01:20;;;;;;;7.22;4.88;;;;;;;7.94;52.88;100048.16;6084736;23;20096;-94
2024/02/15 09:03:51;;;;;;;6.88;5.10;;;;;;;8.05;53.34;100060.78;6109708;23;20009;-94
2024/02/15 09:06:27;;;;;;;6.60;4.40;;;;;;;7.84;53.13;100035.38;6087920;23;20001;-96
2024/02/15 09:08:53;;;;;;;14.30;5.68;;;;;;;7.95;53.53;100036.41;6118187;23;20005;-95
2024/02/15 09:11:23;;;;;;;9.45;5.28;;;;;;;8.07;52.99;100033.69;6110694;23;20428;-95
2024/02/15 09:13:51;;;;;;;7.47;5.07;;;;;;;8.28;51.52;100041.13;6086483;23;19989;-96
2024/02/15 09:16:17;;;;;;;7.45;4.05;;;;;;;8.52;52.68;100042.97;6084804;23;20005;-95
2024/02/15 09:18:52;;;;;;;14.73;8.27;;;;;;;8.89;52.49;100063.03;6084486;23;20360;-95
2024/02/15 09:21:28;;;;;;;9.80;6.30;;;;;;;8.93;51.18;100035.69;6117535;23;20059;-96
2024/02/15 09:23:53;;;;;;;11.45;6.07;;;;;;;9.34;52.06;100057.88;6132668;23;20049;-93
2024/02/15 09:32:39;;;;;;;9.05;5.10;;;;;;;9.48;48.89;100017.03;6159810;23;20017;-95
2024/02/15 09:35:08;;;;;;;8.32;5.30;;;;;;;9.45;49.15;100019.38;6083458;23;20001;-96
2024/02/15 09:41:07;;;;;;;10.93;5.72;;;;;;;9.44;48.90;100020.41;6056075;23;20512;-96
2024/02/15 09:43:34;;;;;;;7.03;4.82;;;;;;;9.59;48.00;100031.44;6142480;23;20029;-96
2024/02/15 09:46:04;;;;;;;13.25;6.22;;;;;;;9.72;50.14;100019.50;6086115;23;20460;-96
2024/02/15 09:54:13;;;;;;;14.90;8.65;;;;;;;9.75;48.98;100002.88;6176476;22;20019;-95
2024/02/15 09:59:44;;;;;;;14.80;4.95;;;;;;;10.08;48.25;100014.63;6135185;23;20044;-96
2024/02/15 10:02:31;;;;;;;9.55;5.57;;;;;;;10.04;47.39;100000.88;6082395;23;20365;-96
2024/02/15 10:04:56;;;;;;;8.25;5.03;;;;;;;10.09;47.76;100006.31;6085500;23;20006;-94
2024/02/15 10:07:26;;;;;;;10.38;5.60;;;;;;;10.03;48.51;99980.41;6080587;23;19998;-94
2024/02/15 10:10:18;;;;;;;11.38;5.32;;;;;;;10.15;49.22;99990.22;6130031;23;20388;-96
2024/02/15 10:13:05;;;;;;;6.90;5.18;;;;;;;10.22;48.14;99985.47;6194145;23;19996;-92
2024/02/15 10:15:47;;;;;;;8.95;5.40;;;;;;;10.45;48.41;99990.59;6175625;23;20052;-96
2024/02/15 10:18:15;;;;;;;7.80;5.20;;;;;;;10.49;47.55;99980.97;6171477;23;20005;-96
2024/02/15 10:21:06;;;;;;;11.63;6.10;;;;;;;10.62;47.13;99982.44;6173388;23;20052;-96
2024/02/15 10:30:02;;;;;;;10.85;5.53;;;;;;;10.83;48.58;99990.72;6224173;22;20028;-94
2024/02/15 10:32:43;;;;;;;7.25;4.70;;;;;;;11.02;47.16;100007.34;6182748;23;20017;-95
2024/02/15 10:35:15;;;;;;;8.07;4.35;;;;;;;10.67;47.17;99993.28;6192979;23;20024;-94
2024/02/15 10:37:44;;;;;;;15.32;5.78;;;;;;;10.74;48.08;99994.97;6169176;23;20091;-95
2024/02/15 10:40:13;;;;;;;8.45;5.53;;;;;;;10.81;47.52;99990.16;6169655;23;19997;-96
2024/02/15 10:42:49;;;;;;;12.82;7.40;;;;;;;10.92;47.41;99968.47;6171841;23;20446;-94
2024/02/15 10:46:03;;;;;;;8.35;5.53;;;;;;;11.10;46.67;99993.38;6174785;23;20120;-96
2024/02/15 10:48:43;;;;;;;9.43;6.28;;;;;;;10.86;46.62;99982.94;6200896;23;20077;-96
2024/02/15 10:51:13;;;;;;;10.65;6.60;;;;;;;10.70;47.37;99984.69;6206278;23;20008;-95
2024/02/15 10:53:42;;;;;;;7.70;5.10;;;;;;;10.48;47.38;99965.88;6194794;23;20070;-94
2024/02/15 10:56:23;;;;;;;13.15;8.57;;;;;;;10.62;47.50;99987.00;6193749;23;20404;-94
2024/02/15 10:59:00;;;;;;;13.03;7.33;;;;;;;10.47;47.17;99960.75;6169933;23;20000;-95
2024/02/15 11:01:26;;;;;;;12.57;7.20;;;;;;;10.70;47.01;99970.41;6192635;23;20234;-95
2024/02/15 11:03:59;;;;;;;8.18;5.55;;;;;;;10.68;47.22;99986.81;6169000;23;20001;-94
2024/02/15 11:06:48;;;;;;;11.57;5.28;;;;;;;10.70;47.52;99973.09;6171912;23;20012;-96
2024/02/15 11:09:26;;;;;;;13.48;8.13;;;;;;;10.74;47.60;99970.72;6175414;23;20012;-96
2024/02/15 11:12:01;;;;;;;11.73;6.65;;;;;;;10.51;47.76;99957.28;6180873;23;20004;-96
2024/02/15 11:17:58;;;;;;;8.70;5.40;;;;;;;10.56;47.28;99959.22;6144529;23;20056;-96
2024/02/15 11:23:30;;;;;;;7.50;5.20;;;;;;;10.69;47.59;99949.94;6196741;22;20017;-94
2024/02/15 11:25:59;;;;;;;8.40;5.40;;;;;;;10.84;47.00;99962.72;6172842;23;20525;-93
2024/02/15 11:28:34;;;;;;;7.43;5.57;;;;;;;10.80;47.69;99956.22;6170059;23;20030;-93
2024/02/15 11:31:03;;;;;;;8.70;5.70;;;;;;;10.51;46.91;99948.41;6191272;23;20011;-94
2024/02/15 11:33:29;;;;;;;9.05;5.13;;;;;;;10.69;47.85;99953.44;6167325;23;20007;-94
2024/02/15 11:36:13;;;;;;;9.02;5.60;;;;;;;10.68;47.31;99937.53;6194904;23;20000;-96
2024/02/15 11:38:48;;;;;;;11.48;6.65;;;;;;;10.84;47.05;99952.75;6174374;23;20044;-95
2024/02/15 11:41:26;;;;;;;13.20;6.78;;;;;;;10.72;47.83;99936.75;6181903;23;20015;-95
2024/02/15 11:44:32;;;;;;;9.82;5.72;;;;;;;10.87;47.08;99941.50;6181759;23;20068;-96
2024/02/15 11:46:59;;;;;;;11.63;5.68;;;;;;;10.80;46.91;99946.25;6103499;23;20006;-94
2024/02/15 11:49:26;;;;;;;9.25;5.78;;;;;;;10.63;47.15;99934.78;6060503;23;20075;-95
2024/02/15 11:51:51;;;;;;;9.60;5.60;;;;;;;10.59;47.24;99931.78;6074404;23;20410;-92
2024/02/15 11:54:28;;;;;;;10.63;5.43;;;;;;;10.56;47.15;99934.16;6101803;23;20005;-94
2024/02/15 11:57:13;;;;;;;8.95;5.95;;;;;;;10.64;46.94;99937.22;6080735;23;20005;-92
2024/02/15 12:21:48;;;;;;;10.13;5.28;;;;;;;11.20;46.35;99934.19;6213530;22;20029;-96
2024/02/15 12:24:25;;;;;;;;;;;;;;;;;;;;;
2024/02/15 12:27:02;;;;;;;8.63;5.40;;;;;;;11.36;46.78;99937.00;6198086;23;20028;-95
2024/02/15 12:47:54;;;;;;;9.65;5.82;;;;;;;11.12;46.65;99934.66;6208481;22;20106;-95
2024/02/15 12:50:31;;;;;;;9.13;6.40;;;;;;;11.00;46.44;99931.31;6181945;23;20021;-96
2024/02/15 12:56:04;;;;;;;10.23;5.80;;;;;;;11.31;46.55;99911.63;6209464;23;20085;-96
2024/02/15 12:58:59;;;;;;;10.18;5.82;;;;;;;11.30;46.21;99911.88;6177994;23;20009;-95
2024/02/15 13:08:20;;;;;;;18.95;6.72;;;;;;;11.59;47.35;99941.97;6237932;23;20075;-95
2024/02/15 13:18:38;;;;;;;10.45;5.85;;;;;;;11.33;46.40;99911.38;6198539;22;20025;-96
2024/02/15 13:21:25;;;;;;;13.20;6.32;;;;;;;11.07;46.95;99903.09;6120381;23;20013;-96
2024/02/15 13:23:57;;;;;;;11.23;5.95;;;;;;;11.20;46.44;99907.22;6173338;23;19997;-96
2024/02/15 13:26:53;;;;;;;7.07;5.47;;;;;;;11.21;45.98;99910.75;6149015;23;20036;-96
2024/02/15 13:29:27;;;;;;;8.60;6.07;;;;;;;11.39;45.78;99934.56;6086857;23;20083;-96
2024/02/15 13:31:54;;;;;;;10.68;6.10;;;;;;;11.22;46.33;99906.97;6103451;23;20002;-91
2024/02/15 13:34:25;;;;;;;8.98;5.95;;;;;;;11.33;46.95;99928.34;6123725;23;20030;-96
2024/02/15 13:36:50;;;;;;;9.15;5.95;;;;;;;11.19;46.51;99927.19;6078219;23;20050;-95
2024/02/15 13:39:32;;;;;;;9.60;6.68;;;;;;;10.90;46.49;99924.00;6074111;23;19998;-95
2024/02/15 13:42:07;;;;;;;;;;;;;;;10.93;46.09;99942.31;6075554;23;20013;-96
2024/02/15 13:44:38;;;;;;;9.40;6.32;;;;;;;10.66;46.78;99918.91;6103740;23;19905;-95
2024/02/15 13:47:06;;;;;;;10.60;6.97;;;;;;;10.46;46.83;99916.88;6124770;23;20002;-96
2024/02/15 13:50:05;;;;;;;9.38;6.07;;;;;;;10.60;47.01;99914.56;6076585;23;20660;-96
2024/02/15 13:52:34;;;;;;;7.53;5.45;;;;;;;10.68;45.82;99910.59;6072454;23;20484;-95
2024/02/15 13:55:03;;;;;;;9.68;6.03;;;;;;;10.85;46.40;99927.47;6077035;23;20013;-96
2024/02/15 14:01:04;;;;;;;8.82;5.70;;;;;;;11.01;46.98;99936.47;6153614;23;20500;-96
2024/02/15 14:03:33;;;;;;;11.48;6.40;;;;;;;10.99;46.59;99910.84;6162493;23;20455;-94
2024/02/15 14:06:04;;;;;;;19.33;11.13;;;;;;;11.09;47.14;99908.25;6112630;23;20000;-94
2024/02/15 14:08:32;;;;;;;9.93;6.85;;;;;;;11.07;47.48;99921.16;6138514;23;20005;-95
2024/02/15 14:10:58;;;;;;;14.35;7.00;;;;;;;10.85;48.56;99910.47;6136761;23;20005;-94
2024/02/15 14:13:26;;;;;;;11.10;6.63;;;;;;;10.79;48.95;99927.66;6137864;23;20005;-95
2024/02/15 14:16:02;;;;;;;;;;;;;;;;;;;;;
2024/02/15 14:18:29;;;;;;;9.88;5.82;;;;;;;10.93;47.42;99942.31;6166197;23;20068;-95
2024/02/15 14:21:33;;;;;;;7.53;5.75;;;;;;;10.69;48.14;99918.44;6146149;23;20017;-96
2024/02/15 14:23:59;;;;;;;13.55;6.85;;;;;;;10.81;47.92;99928.22;6160092;23;20424;-93
2024/02/15 14:26:27;;;;;;;11.27;6.78;;;;;;;10.65;48.13;99925.38;6158683;23;20084;-93
2024/02/15 14:28:53;;;;;;;11.63;6.63;;;;;;;10.60;48.55;99929.91;6137729;23;20004;-96
2024/02/15 15:12:36;;;;;;;12.52;8.68;;;;;;;10.59;49.65;99934.50;5441551;22;20047;-96
2024/02/15 15:12:45;;;;;;;12.20;7.70;;;;;;;10.53;49.61;99911.28;4972137;28;20049;-96
2024/02/15 15:17:50;;;;;;;17.67;9.60;;;;;;;10.64;50.12;99917.56;5258306;23;20062;-94
2024/02/15 15:20:16;;;;;;;25.25;12.68;;;;;;;10.64;50.76;99912.16;4960204;28;20062;-94